Pagina principale
METAR-TAF:

METAR-TAF

Aeroporti :

Whiting_Field_Naval_Air_Station_South_Airport

Milton, Florida, Stati Uniti

latitudine: 30-41-50N, longitudine: 087-01-12W, altezza: 54 m

Osservazione

Il bollettino è stato emesso 20 minuti fa, alle 21:56 UTC
Vento 7 kt da nord
Temperature 14°C
Umidità 72%
Pressione 1023 hPa
Visibilità: 16.1 km
Poco nuvoloso ad un'altezza di 2500 ft
Nubi sparse ad un'altezza di 25000 ft

METAR: KNDZ 162156Z 35007KT 10SM FEW025 SCT250 14/09 A3020 RMK AO2 SLP214 T01390089 $

Ora: 16:16 (22:16 UTC)


TAF: mancante

Osservazioni e previsioni meteorologiche di più di 4000 aeroporti (messaggi METAR e TAF).

Le stazioni disponibili sono rappresentate dai dischi gialli e rossi sulla carta.

Puntare il mouse per vedere il nome della stazione.

Clicca sopra per visualizzare le osservazioni e previsioni meteorologiche.

Per cambiare la mappa : fare clic sui pulsanti verdi con una croce nera per ingrandire, il pulsante verde con un trattino per diminuire, o sulla freccia verde per le mappe adiacenti.


METAR-TAF: